Moyer Aviation Incorporated

Pocono Mountains Airport

188 Airport Drive. Tobyhanna, PA 18466 

P: 570-839-7161
800-321-5890
F: 570-839-7162

Weather

Weather

Pocono Weather

KMPO 190653Z AUTO 33004KT 10SM CLR 08/07 A3009 RMK AO2 SLP185 T00830067

Allentown Weather

KABE 190651Z 00000KT 10SM CLR 16/09 A3005 RMK AO2 SLP174 T01560094

Wilkes-Barre Weather

KAVP 190654Z 11005KT 10SM CLR 12/09 A3008 RMK AO2 SLP180 T01170094


* required field

Contact Us